createdAt,value
2022-10-27T00:01:30.196Z,11.82
2022-10-27T00:04:18.456Z,12.75
2022-10-27T00:07:06.341Z,14.25
2022-10-27T00:09:54.632Z,12.77
2022-10-27T00:12:43.727Z,11.00
2022-10-27T00:15:34.813Z,11.40
2022-10-27T00:18:23.004Z,11.27
2022-10-27T00:21:18.793Z,13.60
2022-10-27T00:24:09.984Z,14.23
2022-10-27T00:27:11.697Z,12.15
2022-10-27T00:30:02.350Z,10.75
2022-10-27T00:32:50.872Z,11.95
2022-10-27T00:35:39.265Z,10.75
2022-10-27T00:38:32.605Z,11.32
2022-10-27T00:41:36.144Z,13.40
2022-10-27T00:44:39.493Z,12.75
2022-10-27T00:47:34.697Z,11.55
2022-10-27T00:50:26.511Z,13.13
2022-10-27T00:56:08.286Z,15.10
2022-10-27T00:58:57.170Z,16.13
2022-10-27T01:01:47.776Z,14.55
2022-10-27T01:04:49.485Z,14.52
2022-10-27T01:07:40.808Z,14.65
2022-10-27T01:10:29.473Z,12.55
2022-10-27T01:13:18.421Z,11.90
2022-10-27T01:16:15.297Z,12.15
2022-10-27T01:19:37.346Z,11.52
2022-10-27T01:22:37.115Z,10.82
2022-10-27T01:25:46.534Z,13.25
2022-10-27T01:28:58.984Z,13.70
2022-10-27T01:32:10.662Z,14.68
2022-10-27T01:35:06.686Z,14.13
2022-10-27T01:38:14.207Z,13.93
2022-10-27T01:41:21.298Z,11.60
2022-10-27T01:44:18.452Z,14.18
2022-10-27T01:47:10.359Z,11.27
2022-10-27T01:49:58.491Z,10.52
2022-10-27T01:52:51.298Z,10.82
2022-10-27T01:55:57.881Z,11.98
2022-10-27T01:59:18.349Z,13.10
2022-10-27T02:02:42.557Z,14.18
2022-10-27T02:05:51.207Z,10.97
2022-10-27T02:08:46.927Z,11.00
2022-10-27T02:11:39.353Z,13.48
2022-10-27T02:14:27.389Z,12.48
2022-10-27T02:17:17.687Z,10.45
2022-10-27T02:20:14.114Z,11.82
2022-10-27T02:23:07.527Z,11.68
2022-10-27T02:26:25.795Z,10.20
2022-10-27T02:29:28.990Z,10.98
2022-10-27T02:32:20.605Z,10.50
2022-10-27T02:35:11.223Z,10.57
2022-10-27T02:37:59.577Z,9.30
2022-10-27T02:40:47.875Z,9.82
2022-10-27T02:43:35.638Z,13.43
2022-10-27T02:46:23.526Z,9.50
2022-10-27T02:49:11.302Z,12.05
2022-10-27T02:51:59.355Z,9.43
2022-10-27T02:54:48.702Z,9.55
2022-10-27T02:57:36.767Z,10.93
2022-10-27T03:00:24.750Z,11.90
2022-10-27T03:03:12.663Z,12.55
2022-10-27T03:06:00.523Z,11.50
2022-10-27T03:08:48.406Z,9.82
2022-10-27T03:11:36.107Z,8.75
2022-10-27T03:14:24.342Z,8.57
2022-10-27T03:17:12.291Z,9.60
2022-10-27T03:20:00.482Z,8.50
2022-10-27T03:22:48.799Z,8.73
2022-10-27T03:25:37.610Z,13.88
2022-10-27T03:28:25.439Z,12.18
2022-10-27T03:31:13.194Z,22.58
2022-10-27T03:34:00.967Z,23.40
2022-10-27T03:36:48.832Z,26.30
2022-10-27T03:39:36.928Z,32.13
2022-10-27T03:42:24.840Z,29.45
2022-10-27T03:45:12.734Z,39.70
2022-10-27T03:48:01.788Z,34.55
2022-10-27T03:50:51.182Z,31.40
2022-10-27T03:53:41.816Z,24.08
2022-10-27T03:56:29.688Z,33.72
2022-10-27T04:02:07.352Z,31.27
2022-10-27T04:04:57.620Z,32.88
2022-10-27T04:07:47.269Z,39.47
2022-10-27T04:10:35.213Z,34.20
2022-10-27T04:13:26.735Z,37.03
2022-10-27T04:16:17.497Z,52.30
2022-10-27T04:19:04.997Z,46.17
2022-10-27T04:21:52.790Z,42.05
2022-10-27T04:24:40.455Z,39.72
2022-10-27T04:27:28.367Z,43.72
2022-10-27T04:30:16.129Z,39.80
2022-10-27T04:33:04.213Z,54.55
2022-10-27T04:35:52.071Z,47.08
2022-10-27T04:38:39.782Z,42.80
2022-10-27T04:41:27.764Z,40.88
2022-10-27T04:44:15.483Z,47.10
2022-10-27T04:47:03.457Z,48.03
2022-10-27T04:49:52.417Z,36.10
2022-10-27T04:52:43.511Z,36.45
2022-10-27T04:55:35.214Z,50.22
2022-10-27T04:58:23.187Z,42.72
2022-10-27T05:01:13.453Z,52.00
2022-10-27T05:04:01.723Z,40.40
2022-10-27T05:06:51.695Z,52.95
2022-10-27T05:09:40.232Z,37.53
2022-10-27T05:12:28.423Z,50.03
2022-10-27T05:15:16.958Z,42.22
2022-10-27T05:18:06.861Z,47.75
2022-10-27T05:20:57.248Z,60.60
2022-10-27T05:23:52.975Z,45.00
2022-10-27T05:26:52.514Z,64.45
2022-10-27T05:30:04.405Z,57.28
2022-10-27T05:32:55.006Z,53.90
2022-10-27T05:35:45.403Z,51.55
2022-10-27T05:38:33.198Z,46.25
2022-10-27T05:41:20.973Z,39.35
2022-10-27T05:44:09.096Z,42.85
2022-10-27T05:47:08.958Z,62.90
2022-10-27T05:49:57.053Z,50.00
2022-10-27T06:05:38.608Z,36.58
2022-10-27T06:08:26.502Z,26.75
2022-10-27T06:11:14.182Z,28.40
2022-10-27T06:14:01.890Z,30.30
2022-10-27T06:16:49.617Z,26.35
2022-10-27T06:19:37.361Z,28.67
2022-10-27T06:22:25.246Z,40.20
2022-10-27T06:25:13.061Z,56.10
2022-10-27T06:28:00.775Z,44.00
2022-10-27T06:30:48.653Z,44.58
2022-10-27T06:33:36.191Z,31.58
2022-10-27T06:36:24.188Z,37.80
2022-10-27T06:39:11.814Z,38.75
2022-10-27T06:42:02.530Z,29.10
2022-10-27T06:44:53.301Z,29.92
2022-10-27T06:47:41.390Z,30.52
2022-10-27T06:50:29.313Z,37.78
2022-10-27T06:53:16.941Z,38.33
2022-10-27T06:56:05.172Z,61.53
2022-10-27T06:58:54.135Z,32.58
2022-10-27T07:01:42.238Z,46.28
2022-10-27T07:04:30.400Z,36.13
2022-10-27T07:07:18.414Z,42.17
2022-10-27T07:10:08.431Z,39.92
2022-10-27T07:13:00.049Z,22.73
2022-10-27T07:15:47.793Z,21.75
2022-10-27T07:18:38.029Z,19.63
2022-10-27T07:21:27.525Z,22.85
2022-10-27T07:24:15.371Z,20.90
2022-10-27T07:27:04.774Z,23.33
2022-10-27T07:29:57.589Z,21.15
2022-10-27T07:32:45.427Z,25.58
2022-10-27T07:35:34.456Z,20.38
2022-10-27T07:38:31.154Z,18.75
2022-10-27T07:41:21.963Z,14.90
2022-10-27T07:44:10.956Z,15.13
2022-10-27T07:46:58.909Z,14.50
2022-10-27T07:49:46.642Z,12.15
2022-10-27T07:52:41.340Z,11.95
2022-10-27T07:55:45.998Z,9.70
2022-10-27T07:58:33.766Z,10.13
2022-10-27T08:01:22.024Z,9.70
2022-10-27T08:04:10.092Z,9.02
2022-10-27T08:07:03.875Z,10.10
2022-10-27T08:09:53.279Z,8.82
2022-10-27T08:12:48.463Z,9.40
2022-10-27T08:15:48.729Z,8.60
2022-10-27T08:18:37.258Z,8.32
2022-10-27T08:21:25.480Z,8.40
2022-10-27T08:27:05.361Z,8.82
2022-10-27T08:30:01.694Z,8.38
2022-10-27T08:32:50.755Z,8.00
2022-10-27T08:35:42.229Z,7.65
2022-10-27T08:38:36.662Z,8.32
2022-10-27T08:41:58.374Z,7.28
2022-10-27T08:45:09.062Z,6.10
2022-10-27T08:48:06.667Z,6.00
2022-10-27T08:54:18.780Z,6.28
2022-10-27T08:57:19.800Z,5.65
2022-10-27T09:00:19.598Z,5.72
2022-10-27T09:03:56.686Z,5.22
2022-10-27T09:07:44.261Z,5.72
2022-10-27T09:11:05.759Z,5.10
2022-10-27T09:14:29.828Z,5.15
2022-10-27T09:21:59.386Z,4.75
2022-10-27T09:35:16.444Z,4.18
2022-10-27T11:20:05.261Z,3.88
2022-10-27T11:23:20.052Z,4.13
2022-10-27T11:34:19.540Z,3.80
2022-10-27T11:37:56.426Z,4.03
2022-10-27T11:41:27.018Z,3.72
2022-10-27T11:44:53.815Z,4.43
2022-10-27T11:51:12.138Z,4.90
2022-10-27T11:54:17.963Z,4.50
2022-10-27T11:57:39.775Z,4.68
2022-10-27T12:01:08.487Z,4.90
2022-10-27T12:04:38.424Z,5.50
2022-10-27T12:07:51.638Z,5.72
2022-10-27T12:12:32.307Z,4.60
2022-10-27T12:15:02.845Z,5.82
2022-10-27T12:18:17.271Z,5.00
2022-10-27T12:21:55.843Z,4.63
2022-10-27T12:25:34.442Z,4.95
2022-10-27T12:29:25.200Z,4.40
2022-10-27T12:32:58.293Z,5.60
2022-10-27T12:53:10.934Z,4.65
2022-10-27T12:56:41.400Z,4.75
2022-10-27T13:00:12.154Z,4.72
2022-10-27T13:06:49.000Z,5.20
2022-10-27T16:35:38.108Z,7.50
2022-10-27T16:38:26.303Z,7.43
2022-10-27T16:41:18.292Z,7.40
2022-10-27T16:44:06.253Z,6.93
2022-10-27T16:46:56.930Z,7.05
2022-10-27T16:49:44.921Z,7.20
2022-10-27T16:52:33.002Z,7.35
2022-10-27T16:55:20.948Z,6.78
2022-10-27T16:58:09.022Z,6.72
2022-10-27T17:00:56.796Z,7.00
2022-10-27T17:03:45.165Z,8.00
2022-10-27T17:06:33.195Z,7.20
2022-10-27T17:09:21.091Z,7.07
2022-10-27T17:12:08.996Z,7.25
2022-10-27T17:14:57.012Z,7.57
2022-10-27T17:17:46.995Z,8.38
2022-10-27T17:20:37.605Z,8.85
2022-10-27T17:23:25.784Z,8.73
2022-10-27T17:26:14.981Z,9.57
2022-10-27T17:29:09.936Z,9.18
2022-10-27T17:31:57.868Z,9.15
2022-10-27T17:34:45.791Z,9.38
2022-10-27T17:37:33.730Z,9.85
2022-10-27T17:40:25.425Z,9.10
2022-10-27T17:43:15.694Z,9.15
2022-10-27T17:46:18.556Z,10.00
2022-10-27T17:49:06.671Z,8.93
2022-10-27T17:51:54.836Z,10.30
2022-10-27T17:54:43.212Z,10.00
2022-10-27T17:57:31.091Z,9.48
2022-10-27T18:00:18.955Z,9.75
2022-10-27T18:03:09.416Z,12.30
2022-10-27T18:06:02.526Z,9.60
2022-10-27T18:08:53.840Z,9.93
2022-10-27T18:11:42.364Z,10.75
2022-10-27T18:14:30.486Z,9.98
2022-10-27T18:17:18.365Z,9.13
2022-10-27T18:20:06.906Z,10.10
2022-10-27T18:22:55.457Z,9.20
2022-10-27T18:25:43.392Z,9.95
2022-10-27T18:28:34.464Z,9.60
2022-10-27T18:31:25.029Z,9.55
2022-10-27T18:34:15.817Z,9.20
2022-10-27T18:37:03.674Z,9.20
2022-10-27T18:39:51.697Z,9.02
2022-10-27T18:42:39.523Z,10.05
2022-10-27T18:45:27.385Z,10.15
2022-10-27T18:48:15.477Z,10.00
2022-10-27T18:51:07.667Z,10.55
2022-10-27T18:53:57.849Z,10.23
2022-10-27T18:56:45.670Z,10.75
2022-10-27T18:59:33.625Z,10.00
2022-10-27T19:05:37.554Z,11.00
2022-10-27T19:08:25.797Z,10.35
2022-10-27T19:11:18.920Z,10.63
2022-10-27T19:14:06.716Z,10.23
2022-10-27T19:16:55.803Z,10.52
2022-10-27T19:19:43.769Z,11.05
2022-10-27T19:22:31.793Z,11.45
2022-10-27T19:25:19.371Z,11.20
2022-10-27T19:28:07.369Z,10.48
2022-10-27T19:30:56.220Z,10.60
2022-10-27T19:33:44.732Z,10.70
2022-10-27T19:36:37.842Z,10.27
2022-10-27T19:39:25.483Z,10.07
2022-10-27T19:42:13.395Z,10.43
2022-10-27T19:45:02.864Z,10.13
2022-10-27T19:47:51.585Z,10.48
2022-10-27T19:50:39.519Z,10.95
2022-10-27T19:53:27.430Z,11.93
2022-10-27T19:56:16.761Z,11.05
2022-10-27T19:59:04.815Z,11.48
2022-10-27T20:01:54.262Z,12.00
2022-10-27T20:04:42.137Z,12.55
2022-10-27T20:07:30.102Z,12.90
2022-10-27T20:10:29.379Z,11.68
2022-10-27T20:13:17.208Z,11.65
2022-10-27T20:16:07.024Z,12.10
2022-10-27T20:18:56.640Z,11.75
2022-10-27T20:21:48.759Z,10.70
2022-10-27T20:24:36.741Z,9.35
2022-10-27T20:27:24.916Z,10.48
2022-10-27T20:30:13.018Z,10.60
2022-10-27T20:33:01.037Z,9.57
2022-10-27T20:35:49.015Z,9.77
2022-10-27T20:38:37.348Z,10.55
2022-10-27T20:41:28.401Z,9.45
2022-10-27T20:44:16.244Z,9.68
2022-10-27T20:47:04.469Z,10.02
2022-10-27T20:49:52.316Z,10.35
2022-10-27T20:52:43.022Z,10.10
2022-10-27T20:55:32.379Z,10.05
2022-10-27T20:58:22.009Z,10.52
2022-10-27T21:01:24.576Z,10.88
2022-10-27T21:04:15.090Z,11.35
2022-10-27T21:07:02.929Z,11.63
2022-10-27T21:09:53.913Z,10.98
2022-10-27T21:12:42.167Z,11.55
2022-10-27T21:15:34.775Z,10.18
2022-10-27T21:18:22.786Z,12.13
2022-10-27T21:21:14.972Z,11.30
2022-10-27T21:24:06.859Z,11.45
2022-10-27T21:27:00.085Z,11.70
2022-10-27T21:29:48.031Z,12.93
2022-10-27T21:32:35.797Z,12.35
2022-10-27T21:35:25.065Z,12.90
2022-10-27T21:38:26.005Z,13.80
2022-10-27T21:41:18.133Z,13.57
2022-10-27T21:44:06.011Z,12.95
2022-10-27T21:46:54.091Z,12.98
2022-10-27T21:49:43.115Z,13.77
2022-10-27T21:52:31.137Z,12.90
2022-10-27T21:55:21.866Z,13.52
2022-10-27T21:58:12.920Z,13.68
2022-10-27T22:01:17.516Z,12.98
2022-10-27T22:04:14.433Z,12.60
2022-10-27T22:07:02.323Z,12.55
2022-10-27T22:09:50.576Z,12.43
2022-10-27T22:12:38.539Z,14.02
2022-10-27T22:15:26.401Z,14.05
2022-10-27T22:18:14.340Z,13.23
2022-10-27T22:21:11.628Z,13.52
2022-10-27T22:24:03.772Z,12.48
2022-10-27T22:26:58.053Z,13.32
2022-10-27T22:29:45.840Z,14.05
2022-10-27T22:32:33.886Z,12.52
2022-10-27T22:35:22.289Z,13.63
2022-10-27T22:38:12.702Z,13.70
2022-10-27T22:41:06.057Z,13.32
2022-10-27T22:44:01.710Z,13.47
2022-10-27T22:46:49.480Z,13.55
2022-10-27T22:50:03.353Z,12.70
2022-10-27T22:52:51.197Z,12.75
2022-10-27T22:55:38.847Z,14.75
2022-10-27T22:58:29.748Z,14.23
2022-10-27T23:01:26.239Z,13.25
2022-10-27T23:04:16.285Z,13.88
2022-10-27T23:07:04.302Z,13.80
2022-10-27T23:09:52.109Z,13.55
2022-10-27T23:12:40.105Z,14.63
2022-10-27T23:15:27.829Z,12.23
2022-10-27T23:18:15.717Z,14.02
2022-10-27T23:21:05.654Z,13.75
2022-10-27T23:23:57.998Z,13.90
2022-10-27T23:26:45.733Z,13.80
2022-10-27T23:29:34.022Z,14.10
2022-10-27T23:32:21.961Z,14.00
2022-10-27T23:35:10.203Z,14.18
2022-10-27T23:37:57.928Z,13.93
2022-10-27T23:40:53.611Z,13.48
2022-10-27T23:43:41.854Z,13.13
2022-10-27T23:46:30.725Z,13.77
2022-10-27T23:49:19.545Z,13.45
2022-10-27T23:52:07.300Z,12.32
2022-10-27T23:54:55.171Z,14.35
2022-10-27T23:57:42.979Z,13.68
